sensor_id;sensor_type;location;lat;lon;timestamp;pressure;altitude;pressure_sealevel;temperature;humidity
22261;BME280;11299;43.202;27.920;2023-04-06T00:00:33;100873.13;;;6.05;100.00
22261;BME280;11299;43.202;27.920;2023-04-06T00:02:59;100765.41;;;5.71;100.00
22261;BME280;11299;43.202;27.920;2023-04-06T00:05:24;100823.81;;;5.92;100.00
22261;BME280;11299;43.202;27.920;2023-04-06T00:07:50;100868.41;;;6.18;100.00
22261;BME280;11299;43.202;27.920;2023-04-06T00:10:16;100921.81;;;6.53;100.00
22261;BME280;11299;43.202;27.920;2023-04-06T00:12:42;100899.44;;;6.50;100.00
22261;BME280;11299;43.202;27.920;2023-04-06T00:15:08;100873.31;;;6.41;100.00
22261;BME280;11299;43.202;27.920;2023-04-06T00:17:33;100869.84;;;6.21;100.00
22261;BME280;11299;43.202;27.920;2023-04-06T00:19:59;100770.75;;;5.66;100.00
22261;BME280;11299;43.202;27.920;2023-04-06T00:22:25;100847.72;;;6.16;100.00
22261;BME280;11299;43.202;27.920;2023-04-06T00:24:50;100886.53;;;6.19;100.00
22261;BME280;11299;43.202;27.920;2023-04-06T00:27:16;100923.78;;;6.40;100.00
22261;BME280;11299;43.202;27.920;2023-04-06T00:29:43;100833.16;;;5.84;100.00
22261;BME280;11299;43.202;27.920;2023-04-06T00:32:09;100775.69;;;5.51;100.00
22261;BME280;11299;43.202;27.920;2023-04-06T00:34:34;100889.06;;;6.21;100.00
22261;BME280;11299;43.202;27.920;2023-04-06T00:37:00;100905.53;;;6.21;100.00
22261;BME280;11299;43.202;27.920;2023-04-06T00:39:25;100854.09;;;6.10;100.00
22261;BME280;11299;43.202;27.920;2023-04-06T00:41:52;100745.13;;;5.48;100.00
22261;BME280;11299;43.202;27.920;2023-04-06T00:44:19;100868.81;;;5.84;100.00
22261;BME280;11299;43.202;27.920;2023-04-06T00:46:45;100867.28;;;5.95;100.00
22261;BME280;11299;43.202;27.920;2023-04-06T00:49:10;100890.22;;;6.07;100.00
22261;BME280;11299;43.202;27.920;2023-04-06T00:51:36;100814.63;;;5.66;100.00
22261;BME280;11299;43.202;27.920;2023-04-06T00:54:02;100871.81;;;6.14;100.00
22261;BME280;11299;43.202;27.920;2023-04-06T00:56:27;100731.72;;;5.33;100.00
22261;BME280;11299;43.202;27.920;2023-04-06T00:58:53;100871.34;;;5.86;100.00
22261;BME280;11299;43.202;27.920;2023-04-06T01:01:18;100860.06;;;6.00;100.00
22261;BME280;11299;43.202;27.920;2023-04-06T01:03:45;100839.88;;;5.82;100.00
22261;BME280;11299;43.202;27.920;2023-04-06T01:06:14;100774.75;;;5.33;100.00
22261;BME280;11299;43.202;27.920;2023-04-06T01:08:39;100773.88;;;5.39;100.00
22261;BME280;11299;43.202;27.920;2023-04-06T01:11:05;100745.28;;;5.22;100.00
22261;BME280;11299;43.202;27.920;2023-04-06T01:13:30;100715.88;;;4.91;100.00
22261;BME280;11299;43.202;27.920;2023-04-06T01:15:56;100618.72;;;4.43;100.00
22261;BME280;11299;43.202;27.920;2023-04-06T01:18:28;100833.28;;;5.51;100.00
22261;BME280;11299;43.202;27.920;2023-04-06T01:20:54;100832.72;;;5.81;100.00
22261;BME280;11299;43.202;27.920;2023-04-06T01:23:20;100756.59;;;5.32;100.00
22261;BME280;11299;43.202;27.920;2023-04-06T01:25:45;100818.66;;;5.64;100.00
22261;BME280;11299;43.202;27.920;2023-04-06T01:28:11;100823.66;;;5.73;100.00
22261;BME280;11299;43.202;27.920;2023-04-06T01:30:36;100823.97;;;5.59;100.00
22261;BME280;11299;43.202;27.920;2023-04-06T01:33:02;100695.78;;;4.53;100.00
22261;BME280;11299;43.202;27.920;2023-04-06T01:35:28;100853.38;;;5.90;100.00
22261;BME280;11299;43.202;27.920;2023-04-06T01:37:54;100821.00;;;5.60;100.00
22261;BME280;11299;43.202;27.920;2023-04-06T01:40:19;100818.78;;;5.75;100.00
22261;BME280;11299;43.202;27.920;2023-04-06T01:42:46;100801.63;;;5.55;100.00
22261;BME280;11299;43.202;27.920;2023-04-06T01:45:11;100828.50;;;5.85;100.00
22261;BME280;11299;43.202;27.920;2023-04-06T01:47:37;100842.97;;;5.98;100.00
22261;BME280;11299;43.202;27.920;2023-04-06T01:50:02;100690.16;;;4.92;100.00
22261;BME280;11299;43.202;27.920;2023-04-06T01:52:31;100772.56;;;5.41;100.00
22261;BME280;11299;43.202;27.920;2023-04-06T01:54:57;100733.13;;;5.05;100.00
22261;BME280;11299;43.202;27.920;2023-04-06T01:57:22;100800.81;;;5.48;100.00
22261;BME280;11299;43.202;27.920;2023-04-06T01:59:48;100673.38;;;4.82;100.00
22261;BME280;11299;43.202;27.920;2023-04-06T02:02:13;100867.84;;;5.65;100.00
22261;BME280;11299;43.202;27.920;2023-04-06T02:04:39;100805.78;;;5.64;100.00
22261;BME280;11299;43.202;27.920;2023-04-06T02:07:04;100826.00;;;5.77;100.00
22261;BME280;11299;43.202;27.920;2023-04-06T02:09:30;100755.53;;;5.33;100.00
22261;BME280;11299;43.202;27.920;2023-04-06T02:11:55;100726.31;;;5.20;100.00
22261;BME280;11299;43.202;27.920;2023-04-06T02:14:24;100698.91;;;5.14;100.00
22261;BME280;11299;43.202;27.920;2023-04-06T02:16:50;100835.66;;;5.86;100.00
22261;BME280;11299;43.202;27.920;2023-04-06T02:19:16;100737.22;;;5.27;100.00
22261;BME280;11299;43.202;27.920;2023-04-06T02:21:42;100795.69;;;5.58;100.00
22261;BME280;11299;43.202;27.920;2023-04-06T02:24:07;100841.16;;;5.86;100.00
22261;BME280;11299;43.202;27.920;2023-04-06T02:26:33;100814.25;;;5.63;100.00
22261;BME280;11299;43.202;27.920;2023-04-06T02:28:58;100779.03;;;5.60;100.00
22261;BME280;11299;43.202;27.920;2023-04-06T02:31:24;100827.31;;;5.67;100.00
22261;BME280;11299;43.202;27.920;2023-04-06T02:33:49;100762.91;;;5.32;100.00
22261;BME280;11299;43.202;27.920;2023-04-06T02:36:15;100751.63;;;5.09;100.00
22261;BME280;11299;43.202;27.920;2023-04-06T02:38:40;100688.94;;;4.82;100.00
22261;BME280;11299;43.202;27.920;2023-04-06T02:41:06;100718.81;;;4.96;100.00
22261;BME280;11299;43.202;27.920;2023-04-06T02:43:32;100807.59;;;5.39;100.00
22261;BME280;11299;43.202;27.920;2023-04-06T02:45:57;100807.25;;;5.29;100.00
22261;BME280;11299;43.202;27.920;2023-04-06T02:48:23;100756.31;;;5.09;100.00
22261;BME280;11299;43.202;27.920;2023-04-06T02:50:48;100842.06;;;5.66;100.00
22261;BME280;11299;43.202;27.920;2023-04-06T02:53:14;100775.44;;;5.15;100.00
22261;BME280;11299;43.202;27.920;2023-04-06T02:55:40;100789.09;;;5.28;100.00
22261;BME280;11299;43.202;27.920;2023-04-06T02:58:05;100840.13;;;5.73;100.00
22261;BME280;11299;43.202;27.920;2023-04-06T03:00:31;100860.22;;;5.67;100.00
22261;BME280;11299;43.202;27.920;2023-04-06T03:02:56;100820.97;;;5.23;100.00
22261;BME280;11299;43.202;27.920;2023-04-06T03:05:22;100756.50;;;5.07;100.00
22261;BME280;11299;43.202;27.920;2023-04-06T03:07:47;100773.25;;;5.30;100.00
22261;BME280;11299;43.202;27.920;2023-04-06T03:10:13;100840.47;;;5.52;100.00
22261;BME280;11299;43.202;27.920;2023-04-06T03:12:38;100863.59;;;5.69;100.00
22261;BME280;11299;43.202;27.920;2023-04-06T03:15:04;100762.56;;;5.22;100.00
22261;BME280;11299;43.202;27.920;2023-04-06T03:17:30;100826.44;;;5.29;100.00
22261;BME280;11299;43.202;27.920;2023-04-06T03:19:55;100786.25;;;5.04;100.00
22261;BME280;11299;43.202;27.920;2023-04-06T03:22:21;100858.41;;;5.48;100.00
22261;BME280;11299;43.202;27.920;2023-04-06T03:24:46;100811.47;;;5.25;100.00
22261;BME280;11299;43.202;27.920;2023-04-06T03:27:12;100734.50;;;4.76;100.00
22261;BME280;11299;43.202;27.920;2023-04-06T03:29:37;100793.38;;;5.11;100.00
22261;BME280;11299;43.202;27.920;2023-04-06T03:32:03;100761.00;;;4.89;100.00
22261;BME280;11299;43.202;27.920;2023-04-06T03:34:28;100868.81;;;5.33;100.00
22261;BME280;11299;43.202;27.920;2023-04-06T03:36:54;100795.50;;;5.09;100.00
22261;BME280;11299;43.202;27.920;2023-04-06T03:39:20;100705.09;;;4.52;100.00
22261;BME280;11299;43.202;27.920;2023-04-06T03:41:45;100828.81;;;5.06;100.00
22261;BME280;11299;43.202;27.920;2023-04-06T03:44:11;100769.03;;;4.77;100.00
22261;BME280;11299;43.202;27.920;2023-04-06T03:46:36;100827.97;;;5.12;100.00
22261;BME280;11299;43.202;27.920;2023-04-06T03:49:02;100835.34;;;5.18;100.00
22261;BME280;11299;43.202;27.920;2023-04-06T03:51:27;100846.13;;;5.07;100.00
22261;BME280;11299;43.202;27.920;2023-04-06T03:53:53;100843.72;;;5.30;100.00
22261;BME280;11299;43.202;27.920;2023-04-06T03:56:18;100801.41;;;5.06;100.00
22261;BME280;11299;43.202;27.920;2023-04-06T03:58:45;100714.78;;;4.41;100.00
22261;BME280;11299;43.202;27.920;2023-04-06T04:01:10;100688.72;;;4.19;100.00
22261;BME280;11299;43.202;27.920;2023-04-06T04:03:36;100840.59;;;5.13;100.00
22261;BME280;11299;43.202;27.920;2023-04-06T04:06:01;100874.94;;;5.29;100.00
22261;BME280;11299;43.202;27.920;2023-04-06T04:08:27;100699.69;;;4.26;100.00
22261;BME280;11299;43.202;27.920;2023-04-06T04:10:52;100769.25;;;4.82;100.00
22261;BME280;11299;43.202;27.920;2023-04-06T04:13:18;100707.41;;;4.42;100.00
22261;BME280;11299;43.202;27.920;2023-04-06T04:15:43;100694.16;;;4.39;100.00
22261;BME280;11299;43.202;27.920;2023-04-06T04:18:09;100863.56;;;5.25;100.00
22261;BME280;11299;43.202;27.920;2023-04-06T04:20:35;100862.50;;;5.26;100.00
22261;BME280;11299;43.202;27.920;2023-04-06T04:23:00;100816.19;;;5.05;100.00
22261;BME280;11299;43.202;27.920;2023-04-06T04:25:25;100686.81;;;4.33;100.00
22261;BME280;11299;43.202;27.920;2023-04-06T04:27:51;100741.94;;;4.56;100.00
22261;BME280;11299;43.202;27.920;2023-04-06T04:30:17;100827.56;;;5.02;100.00
22261;BME280;11299;43.202;27.920;2023-04-06T04:32:42;100640.56;;;3.99;100.00
22261;BME280;11299;43.202;27.920;2023-04-06T04:35:08;100826.88;;;5.20;100.00
22261;BME280;11299;43.202;27.920;2023-04-06T04:37:33;100821.41;;;5.13;100.00
22261;BME280;11299;43.202;27.920;2023-04-06T04:40:00;100790.31;;;4.88;100.00
22261;BME280;11299;43.202;27.920;2023-04-06T04:42:25;100794.69;;;5.02;100.00
22261;BME280;11299;43.202;27.920;2023-04-06T04:44:51;100839.34;;;5.22;100.00
22261;BME280;11299;43.202;27.920;2023-04-06T04:47:17;100852.31;;;5.40;100.00
22261;BME280;11299;43.202;27.920;2023-04-06T04:49:42;100792.56;;;5.11;100.00
22261;BME280;11299;43.202;27.920;2023-04-06T04:52:08;100831.25;;;5.34;100.00
22261;BME280;11299;43.202;27.920;2023-04-06T04:54:33;100864.59;;;5.24;100.00
22261;BME280;11299;43.202;27.920;2023-04-06T04:56:59;100798.91;;;4.98;100.00
22261;BME280;11299;43.202;27.920;2023-04-06T04:59:24;100792.56;;;5.04;100.00
22261;BME280;11299;43.202;27.920;2023-04-06T05:01:50;100846.00;;;5.39;100.00
22261;BME280;11299;43.202;27.920;2023-04-06T05:04:15;100727.63;;;4.54;100.00
22261;BME280;11299;43.202;27.920;2023-04-06T05:06:41;100710.13;;;4.55;100.00
22261;BME280;11299;43.202;27.920;2023-04-06T05:09:06;100728.19;;;4.69;100.00
22261;BME280;11299;43.202;27.920;2023-04-06T05:11:32;100757.63;;;4.87;100.00
22261;BME280;11299;43.202;27.920;2023-04-06T05:13:57;100795.06;;;5.12;100.00
22261;BME280;11299;43.202;27.920;2023-04-06T05:16:24;100766.91;;;4.86;100.00
22261;BME280;11299;43.202;27.920;2023-04-06T05:18:49;100819.47;;;5.33;100.00
22261;BME280;11299;43.202;27.920;2023-04-06T05:21:15;100830.78;;;5.43;100.00
22261;BME280;11299;43.202;27.920;2023-04-06T05:23:41;100833.34;;;5.38;100.00
22261;BME280;11299;43.202;27.920;2023-04-06T05:26:06;100726.47;;;4.81;100.00
22261;BME280;11299;43.202;27.920;2023-04-06T05:28:32;100832.88;;;5.54;100.00
22261;BME280;11299;43.202;27.920;2023-04-06T05:30:58;100866.94;;;5.71;100.00
22261;BME280;11299;43.202;27.920;2023-04-06T05:33:24;100726.03;;;4.84;100.00
22261;BME280;11299;43.202;27.920;2023-04-06T05:35:50;100815.56;;;5.54;100.00
22261;BME280;11299;43.202;27.920;2023-04-06T05:38:15;100711.88;;;4.94;100.00
22261;BME280;11299;43.202;27.920;2023-04-06T05:40:41;100878.34;;;5.75;100.00
22261;BME280;11299;43.202;27.920;2023-04-06T05:43:07;100780.03;;;5.28;100.00
22261;BME280;11299;43.202;27.920;2023-04-06T05:45:33;100733.13;;;5.05;100.00
22261;BME280;11299;43.202;27.920;2023-04-06T05:48:00;100836.16;;;5.69;100.00
22261;BME280;11299;43.202;27.920;2023-04-06T05:50:26;100826.22;;;5.75;100.00
22261;BME280;11299;43.202;27.920;2023-04-06T05:52:52;100835.72;;;5.72;100.00
22261;BME280;11299;43.202;27.920;2023-04-06T05:55:17;100848.78;;;5.77;100.00
22261;BME280;11299;43.202;27.920;2023-04-06T05:57:43;100820.03;;;5.80;100.00
22261;BME280;11299;43.202;27.920;2023-04-06T06:00:09;100818.38;;;5.79;100.00
22261;BME280;11299;43.202;27.920;2023-04-06T06:02:35;100717.41;;;5.25;100.00
22261;BME280;11299;43.202;27.920;2023-04-06T06:05:00;100835.66;;;5.86;100.00
22261;BME280;11299;43.202;27.920;2023-04-06T06:07:26;100776.41;;;5.71;100.00
22261;BME280;11299;43.202;27.920;2023-04-06T06:09:51;100851.25;;;5.92;100.00
22261;BME280;11299;43.202;27.920;2023-04-06T06:12:17;100700.06;;;5.37;100.00
22261;BME280;11299;43.202;27.920;2023-04-06T06:14:42;100837.97;;;6.20;100.00
22261;BME280;11299;43.202;27.920;2023-04-06T06:17:08;100778.25;;;5.84;100.00
22261;BME280;11299;43.202;27.920;2023-04-06T06:19:34;100813.97;;;6.09;100.00
22261;BME280;11299;43.202;27.920;2023-04-06T06:21:59;100839.31;;;6.11;100.00
22261;BME280;11299;43.202;27.920;2023-04-06T06:24:28;100861.00;;;6.19;100.00
22261;BME280;11299;43.202;27.920;2023-04-06T06:26:53;100819.09;;;6.05;100.00
22261;BME280;11299;43.202;27.920;2023-04-06T06:29:19;100744.81;;;5.62;100.00
22261;BME280;11299;43.202;27.920;2023-04-06T06:31:44;100816.50;;;6.10;100.00
22261;BME280;11299;43.202;27.920;2023-04-06T06:34:10;100801.13;;;6.03;100.00
22261;BME280;11299;43.202;27.920;2023-04-06T06:36:35;100795.09;;;5.94;100.00
22261;BME280;11299;43.202;27.920;2023-04-06T06:39:01;100836.72;;;6.16;100.00
22261;BME280;11299;43.202;27.920;2023-04-06T06:41:28;100873.41;;;6.28;100.00
22261;BME280;11299;43.202;27.920;2023-04-06T06:43:54;100782.31;;;6.06;100.00
22261;BME280;11299;43.202;27.920;2023-04-06T06:46:20;100716.31;;;5.63;100.00
22261;BME280;11299;43.202;27.920;2023-04-06T06:48:46;100828.91;;;6.44;100.00
22261;BME280;11299;43.202;27.920;2023-04-06T06:51:11;100811.97;;;6.47;100.00
22261;BME280;11299;43.202;27.920;2023-04-06T06:53:37;100856.25;;;6.57;100.00
22261;BME280;11299;43.202;27.920;2023-04-06T06:56:03;100705.94;;;5.97;100.00
22261;BME280;11299;43.202;27.920;2023-04-06T06:58:28;100688.53;;;6.09;100.00
22261;BME280;11299;43.202;27.920;2023-04-06T07:00:57;100819.03;;;7.04;100.00
22261;BME280;11299;43.202;27.920;2023-04-06T07:03:24;100807.84;;;6.99;100.00
22261;BME280;11299;43.202;27.920;2023-04-06T07:05:49;100802.66;;;7.09;100.00
22261;BME280;11299;43.202;27.920;2023-04-06T07:08:22;100833.22;;;7.37;100.00
22261;BME280;11299;43.202;27.920;2023-04-06T07:10:50;100817.56;;;7.37;100.00
22261;BME280;11299;43.202;27.920;2023-04-06T07:13:18;100799.66;;;7.46;100.00
22261;BME280;11299;43.202;27.920;2023-04-06T07:15:47;100800.19;;;7.55;100.00
22261;BME280;11299;43.202;27.920;2023-04-06T07:18:13;100800.56;;;7.58;100.00
22261;BME280;11299;43.202;27.920;2023-04-06T07:20:38;100792.06;;;7.60;100.00
22261;BME280;11299;43.202;27.920;2023-04-06T07:23:04;100830.47;;;7.85;100.00
22261;BME280;11299;43.202;27.920;2023-04-06T07:25:30;100812.53;;;7.94;100.00
22261;BME280;11299;43.202;27.920;2023-04-06T07:27:55;100705.75;;;7.13;100.00
22261;BME280;11299;43.202;27.920;2023-04-06T07:30:21;100824.63;;;7.93;100.00
22261;BME280;11299;43.202;27.920;2023-04-06T07:32:47;100768.81;;;7.86;100.00
22261;BME280;11299;43.202;27.920;2023-04-06T07:35:13;100643.03;;;7.33;100.00
22261;BME280;11299;43.202;27.920;2023-04-06T07:37:39;100827.91;;;8.54;100.00
22261;BME280;11299;43.202;27.920;2023-04-06T07:40:05;100812.47;;;8.65;100.00
22261;BME280;11299;43.202;27.920;2023-04-06T07:42:31;100754.81;;;8.40;100.00
22261;BME280;11299;43.202;27.920;2023-04-06T07:44:58;100822.66;;;8.76;100.00
22261;BME280;11299;43.202;27.920;2023-04-06T07:47:23;100720.22;;;8.44;100.00
22261;BME280;11299;43.202;27.920;2023-04-06T07:49:49;100785.47;;;8.78;100.00
22261;BME280;11299;43.202;27.920;2023-04-06T07:52:15;100762.00;;;8.64;100.00
22261;BME280;11299;43.202;27.920;2023-04-06T07:54:41;100781.06;;;8.89;100.00
22261;BME280;11299;43.202;27.920;2023-04-06T07:57:07;100795.41;;;9.14;100.00
22261;BME280;11299;43.202;27.920;2023-04-06T07:59:32;100752.00;;;9.09;100.00
22261;BME280;11299;43.202;27.920;2023-04-06T08:01:58;100742.94;;;9.25;100.00
22261;BME280;11299;43.202;27.920;2023-04-06T08:04:23;100651.19;;;8.90;100.00
22261;BME280;11299;43.202;27.920;2023-04-06T08:06:49;100781.78;;;9.92;100.00
22261;BME280;11299;43.202;27.920;2023-04-06T08:09:14;100625.97;;;9.26;100.00
22261;BME280;11299;43.202;27.920;2023-04-06T08:11:40;100818.91;;;10.24;100.00
22261;BME280;11299;43.202;27.920;2023-04-06T08:14:05;100608.69;;;9.31;100.00
22261;BME280;11299;43.202;27.920;2023-04-06T08:16:31;100725.44;;;10.21;100.00
22261;BME280;11299;43.202;27.920;2023-04-06T08:18:56;100808.44;;;10.76;100.00
22261;BME280;11299;43.202;27.920;2023-04-06T08:21:22;100710.16;;;10.02;100.00
22261;BME280;11299;43.202;27.920;2023-04-06T08:23:47;100731.81;;;10.21;100.00
22261;BME280;11299;43.202;27.920;2023-04-06T08:26:13;100741.69;;;10.17;100.00
22261;BME280;11299;43.202;27.920;2023-04-06T08:28:38;100807.59;;;10.75;100.00
22261;BME280;11299;43.202;27.920;2023-04-06T08:31:05;100805.84;;;10.86;100.00
22261;BME280;11299;43.202;27.920;2023-04-06T08:33:31;100630.88;;;10.02;100.00
22261;BME280;11299;43.202;27.920;2023-04-06T08:35:57;100774.25;;;11.03;100.00
22261;BME280;11299;43.202;27.920;2023-04-06T08:38:22;100646.22;;;9.93;100.00
22261;BME280;11299;43.202;27.920;2023-04-06T08:40:48;100658.13;;;10.10;100.00
22261;BME280;11299;43.202;27.920;2023-04-06T08:43:17;100677.66;;;10.09;100.00
22261;BME280;11299;43.202;27.920;2023-04-06T08:45:45;100801.41;;;10.68;100.00
22261;BME280;11299;43.202;27.920;2023-04-06T08:48:11;100660.44;;;10.02;100.00
22261;BME280;11299;43.202;27.920;2023-04-06T08:50:38;100744.69;;;10.49;100.00
22261;BME280;11299;43.202;27.920;2023-04-06T08:53:03;100694.44;;;10.19;100.00
22261;BME280;11299;43.202;27.920;2023-04-06T08:55:31;100798.47;;;10.58;100.00
22261;BME280;11299;43.202;27.920;2023-04-06T08:57:56;100735.22;;;9.95;100.00
22261;BME280;11299;43.202;27.920;2023-04-06T09:00:25;100780.03;;;10.47;100.00
22261;BME280;11299;43.202;27.920;2023-04-06T09:02:53;100666.47;;;9.99;100.00
22261;BME280;11299;43.202;27.920;2023-04-06T09:05:20;100773.16;;;10.66;100.00
22261;BME280;11299;43.202;27.920;2023-04-06T09:07:46;100790.41;;;10.73;100.00
22261;BME280;11299;43.202;27.920;2023-04-06T09:10:11;100710.00;;;10.08;100.00
22261;BME280;11299;43.202;27.920;2023-04-06T09:12:37;100752.56;;;10.57;100.00
22261;BME280;11299;43.202;27.920;2023-04-06T09:15:03;100757.16;;;10.68;100.00
22261;BME280;11299;43.202;27.920;2023-04-06T09:17:33;100713.56;;;10.37;100.00
22261;BME280;11299;43.202;27.920;2023-04-06T09:20:00;100759.59;;;10.65;100.00
22261;BME280;11299;43.202;27.920;2023-04-06T09:22:35;100776.72;;;10.62;100.00
22261;BME280;11299;43.202;27.920;2023-04-06T09:25:00;100849.69;;;10.77;100.00
22261;BME280;11299;43.202;27.920;2023-04-06T09:27:34;100737.34;;;10.38;100.00
22261;BME280;11299;43.202;27.920;2023-04-06T09:30:10;100755.06;;;10.59;100.00
22261;BME280;11299;43.202;27.920;2023-04-06T09:32:50;100600.56;;;8.96;100.00
22261;BME280;11299;43.202;27.920;2023-04-06T09:35:16;100739.00;;;10.39;100.00
22261;BME280;11299;43.202;27.920;2023-04-06T09:37:43;100748.53;;;10.31;100.00
22261;BME280;11299;43.202;27.920;2023-04-06T09:40:09;100788.50;;;10.57;100.00
22261;BME280;11299;43.202;27.920;2023-04-06T09:42:35;100634.66;;;9.80;100.00
22261;BME280;11299;43.202;27.920;2023-04-06T09:45:02;100734.16;;;10.29;100.00
22261;BME280;11299;43.202;27.920;2023-04-06T09:47:30;100670.47;;;10.08;100.00
22261;BME280;11299;43.202;27.920;2023-04-06T09:49:57;100671.00;;;10.05;100.00
22261;BME280;11299;43.202;27.920;2023-04-06T09:52:30;100714.22;;;10.11;100.00
22261;BME280;11299;43.202;27.920;2023-04-06T09:55:01;100772.19;;;10.56;100.00
22261;BME280;11299;43.202;27.920;2023-04-06T09:57:46;100671.81;;;10.05;100.00
22261;BME280;11299;43.202;27.920;2023-04-06T10:00:13;100722.75;;;10.43;100.00
22261;BME280;11299;43.202;27.920;2023-04-06T10:07:50;100576.56;;;9.58;100.00
22261;BME280;11299;43.202;27.920;2023-04-06T10:10:19;100758.94;;;10.41;100.00
22261;BME280;11299;43.202;27.920;2023-04-06T10:12:45;100768.31;;;10.40;100.00
22261;BME280;11299;43.202;27.920;2023-04-06T10:15:12;100760.13;;;10.12;100.00
22261;BME280;11299;43.202;27.920;2023-04-06T10:17:38;100781.72;;;10.15;100.00
22261;BME280;11299;43.202;27.920;2023-04-06T10:20:10;100770.16;;;10.18;100.00
22261;BME280;11299;43.202;27.920;2023-04-06T10:22:44;100798.47;;;10.58;100.00
22261;BME280;11299;43.202;27.920;2023-04-06T10:25:16;100690.91;;;10.07;100.00
22261;BME280;11299;43.202;27.920;2023-04-06T10:27:41;100695.56;;;10.18;100.00
22261;BME280;11299;43.202;27.920;2023-04-06T10:30:07;100772.81;;;10.79;100.00
22261;BME280;11299;43.202;27.920;2023-04-06T10:32:37;100778.66;;;10.99;100.00
22261;BME280;11299;43.202;27.920;2023-04-06T10:35:10;100805.00;;;10.85;100.00
22261;BME280;11299;43.202;27.920;2023-04-06T10:38:01;100778.00;;;11.35;100.00
22261;BME280;11299;43.202;27.920;2023-04-06T10:40:27;100775.19;;;11.30;100.00
22261;BME280;11299;43.202;27.920;2023-04-06T10:42:54;100756.84;;;11.46;100.00
22261;BME280;11299;43.202;27.920;2023-04-06T10:45:25;100739.44;;;11.72;100.00
22261;BME280;11299;43.202;27.920;2023-04-06T10:47:54;100749.56;;;11.62;99.55
22261;BME280;11299;43.202;27.920;2023-04-06T10:50:21;100552.44;;;10.20;99.08
22261;BME280;11299;43.202;27.920;2023-04-06T10:52:47;100758.72;;;11.41;99.50
22261;BME280;11299;43.202;27.920;2023-04-06T10:55:23;100722.97;;;10.74;100.00
22261;BME280;11299;43.202;27.920;2023-04-06T10:57:51;100773.25;;;11.53;100.00
22261;BME280;11299;43.202;27.920;2023-04-06T11:00:17;100658.97;;;11.09;99.17
22261;BME280;11299;43.202;27.920;2023-04-06T11:02:44;100741.94;;;11.74;99.12
22261;BME280;11299;43.202;27.920;2023-04-06T11:05:12;100763.66;;;11.82;99.90
22261;BME280;11299;43.202;27.920;2023-04-06T11:07:39;100803.75;;;12.01;98.16
22261;BME280;11299;43.202;27.920;2023-04-06T11:10:06;100748.09;;;12.07;97.16
22261;BME280;11299;43.202;27.920;2023-04-06T11:12:31;100748.56;;;12.26;95.68
22261;BME280;11299;43.202;27.920;2023-04-06T11:15:01;100744.09;;;12.25;96.11
22261;BME280;11299;43.202;27.920;2023-04-06T11:17:31;100587.56;;;11.11;93.26
22261;BME280;11299;43.202;27.920;2023-04-06T11:19:57;100740.63;;;12.08;95.12
22261;BME280;11299;43.202;27.920;2023-04-06T11:22:24;100771.06;;;12.03;93.86
22261;BME280;11299;43.202;27.920;2023-04-06T11:24:50;100647.66;;;11.37;93.71
22261;BME280;11299;43.202;27.920;2023-04-06T11:27:17;100737.84;;;12.08;94.35
22261;BME280;11299;43.202;27.920;2023-04-06T11:29:43;100757.34;;;12.18;93.36
22261;BME280;11299;43.202;27.920;2023-04-06T11:32:09;100776.88;;;12.01;92.60
22261;BME280;11299;43.202;27.920;2023-04-06T11:34:36;100746.13;;;12.03;93.33
22261;BME280;11299;43.202;27.920;2023-04-06T11:37:07;100745.50;;;11.96;93.07
22261;BME280;11299;43.202;27.920;2023-04-06T11:39:39;100322.88;;;9.78;93.91
22261;BME280;11299;43.202;27.920;2023-04-06T11:42:05;100738.66;;;12.35;92.89
22261;BME280;11299;43.202;27.920;2023-04-06T11:44:39;100725.06;;;12.34;92.13
22261;BME280;11299;43.202;27.920;2023-04-06T11:47:07;100720.44;;;12.49;90.75
22261;BME280;11299;43.202;27.920;2023-04-06T11:49:36;100730.06;;;12.73;91.59
22261;BME280;11299;43.202;27.920;2023-04-06T11:52:02;100724.03;;;12.86;91.74
22261;BME280;11299;43.202;27.920;2023-04-06T11:54:36;100718.50;;;12.96;91.75
22261;BME280;11299;43.202;27.920;2023-04-06T11:57:03;100707.69;;;12.95;89.48
22261;BME280;11299;43.202;27.920;2023-04-06T11:59:29;100720.22;;;13.02;90.47
22261;BME280;11299;43.202;27.920;2023-04-06T12:01:57;100707.78;;;13.05;89.68
22261;BME280;11299;43.202;27.920;2023-04-06T12:04:23;100683.38;;;13.07;87.64
22261;BME280;11299;43.202;27.920;2023-04-06T12:06:49;100560.81;;;12.16;87.43
22261;BME280;11299;43.202;27.920;2023-04-06T12:09:16;100702.91;;;12.80;87.21
22261;BME280;11299;43.202;27.920;2023-04-06T12:11:42;100730.81;;;12.64;88.67
22261;BME280;11299;43.202;27.920;2023-04-06T12:14:08;100654.53;;;12.24;88.57
22261;BME280;11299;43.202;27.920;2023-04-06T12:16:34;100709.00;;;12.77;88.70
22261;BME280;11299;43.202;27.920;2023-04-06T12:19:00;100720.72;;;12.89;88.25
22261;BME280;11299;43.202;27.920;2023-04-06T12:21:33;100721.25;;;12.86;88.01
22261;BME280;11299;43.202;27.920;2023-04-06T12:23:59;100753.41;;;12.77;87.42
22261;BME280;11299;43.202;27.920;2023-04-06T12:26:26;100705.50;;;12.55;88.38
22261;BME280;11299;43.202;27.920;2023-04-06T12:28:52;100678.09;;;12.22;88.96
22261;BME280;11299;43.202;27.920;2023-04-06T12:31:19;100716.09;;;12.58;88.52
22261;BME280;11299;43.202;27.920;2023-04-06T12:33:49;100708.19;;;12.40;87.41
22261;BME280;11299;43.202;27.920;2023-04-06T12:36:19;100720.66;;;12.38;87.37
22261;BME280;11299;43.202;27.920;2023-04-06T12:38:49;100734.75;;;12.36;87.76